Time;durP1;ratioP1;P1;durP2;ratioP2;P2;SDS_P1;SDS_P2;PMS_P1;PMS_P2;Temp;Humidity;BMP_temperature;BMP_pressure;BME280_temperature;BME280_humidity;BME280_pressure;Samples;Min_cycle;Max_cycle;Signal;HPM_P1;HPM_P2
2022/04/15 00:01:36;;;;;;;10.57;8.03;;;;;;;12.02;57.40;100095.88;5036658;28;20734;-63
2022/04/15 00:04:04;;;;;;;12.67;9.03;;;;;;;11.99;57.37;100096.25;5054667;28;20281;-63
2022/04/15 00:06:32;;;;;;;13.50;8.97;;;;;;;11.93;57.73;100088.19;5036997;28;20626;-63
2022/04/15 00:08:59;;;;;;;12.27;8.30;;;;;;;11.82;57.42;100084.19;5055173;28;20201;-63
2022/04/15 00:11:28;;;;;;;17.63;8.37;;;;;;;11.80;58.00;100099.53;5054581;28;20253;-63
2022/04/15 00:13:55;;;;;;;11.10;8.30;;;;;;;11.80;58.60;100090.72;5054442;28;20226;-63
2022/04/15 00:16:22;;;;;;;12.13;8.40;;;;;;;11.81;58.48;100092.38;5054880;28;20614;-63
2022/04/15 00:18:50;;;;;;;10.50;9.00;;;;;;;11.77;58.42;100086.63;5054711;28;20200;-63
2022/04/15 00:21:17;;;;;;;9.53;8.40;;;;;;;11.72;58.84;100086.34;5036596;28;20255;-63
2022/04/15 00:23:44;;;;;;;13.47;9.17;;;;;;;11.73;58.83;100082.69;5055185;28;20208;-63
2022/04/15 00:26:11;;;;;;;11.17;9.10;;;;;;;11.73;59.13;100080.03;5054385;28;20214;-63
2022/04/15 00:28:37;;;;;;;9.97;8.87;;;;;;;11.76;58.73;100079.63;5055127;28;20255;-63
2022/04/15 00:31:04;;;;;;;14.70;9.13;;;;;;;11.75;59.08;100083.31;5054109;28;20200;-63
2022/04/15 00:33:31;;;;;;;10.20;9.17;;;;;;;11.75;59.49;100070.00;5054001;28;20193;-63
2022/04/15 00:35:59;;;;;;;10.27;8.20;;;;;;;11.73;59.43;100077.34;5053938;28;20632;-63
2022/04/15 00:38:26;;;;;;;13.70;9.23;;;;;;;11.74;59.21;100070.19;5054836;28;20250;-63
2022/04/15 00:40:53;;;;;;;10.13;8.93;;;;;;;11.71;58.87;100065.25;5054653;28;20226;-63
2022/04/15 00:43:22;;;;;;;13.77;9.53;;;;;;;11.68;59.24;100063.75;5054223;28;20201;-63
2022/04/15 00:45:48;;;;;;;9.97;8.67;;;;;;;11.64;59.82;100064.34;5053655;28;20253;-63
2022/04/15 00:48:19;;;;;;;13.27;10.57;;;;;;;11.58;58.79;100070.38;5053652;28;20262;-63
2022/04/15 00:50:46;;;;;;;11.23;10.23;;;;;;;11.47;58.84;100066.38;5053700;28;20239;-63
2022/04/15 00:53:22;;;;;;;13.40;11.07;;;;;;;11.46;59.45;100071.88;5054445;28;20632;-63
2022/04/15 00:55:54;;;;;;;18.97;10.53;;;;;;;11.38;59.80;100070.16;5053949;28;20190;-63
2022/04/15 00:58:24;;;;;;;14.40;12.27;;;;;;;11.32;59.04;100065.59;5054195;28;20194;-63
2022/04/15 01:00:54;;;;;;;19.90;13.03;;;;;;;11.27;59.09;100067.16;5052890;28;20228;-62
2022/04/15 01:03:21;;;;;;;16.23;13.73;;;;;;;11.26;59.36;100065.53;5053763;28;20285;-63
2022/04/15 01:05:49;;;;;;;16.83;13.53;;;;;;;11.29;58.76;100071.28;5054476;28;20193;-63
2022/04/15 01:08:21;;;;;;;19.20;15.10;;;;;;;11.25;59.40;100064.69;5053696;28;20200;-63
2022/04/15 01:10:49;;;;;;;23.67;15.97;;;;;;;11.25;59.13;100062.03;5053275;28;20742;-62
2022/04/15 01:13:17;;;;;;;19.03;15.10;;;;;;;11.26;59.68;100060.22;5035706;28;20664;-62
2022/04/15 01:15:44;;;;;;;24.60;16.13;;;;;;;11.21;59.78;100066.06;5053948;28;20239;-63
2022/04/15 01:18:11;;;;;;;22.83;16.40;;;;;;;11.19;60.35;100062.75;5054058;28;20252;-63
2022/04/15 01:20:39;;;;;;;22.83;16.40;;;;;;;11.19;59.68;100059.31;5053575;28;20218;-63
2022/04/15 01:23:08;;;;;;;18.77;15.10;;;;;;;11.15;60.14;100055.38;5053363;28;20203;-63
2022/04/15 01:25:35;;;;;;;24.63;15.83;;;;;;;11.12;60.94;100053.06;5053858;28;20199;-64
2022/04/15 01:28:02;;;;;;;24.07;15.00;;;;;;;11.12;61.55;100053.91;5053309;28;20203;-63
2022/04/15 01:30:29;;;;;;;16.83;14.40;;;;;;;11.13;61.47;100055.53;5052949;28;20198;-63
2022/04/15 01:32:55;;;;;;;23.77;15.23;;;;;;;11.13;61.23;100058.19;5035459;28;20662;-63
2022/04/15 01:35:22;;;;;;;24.27;14.20;;;;;;;11.13;60.70;100054.72;5053234;28;20257;-63
2022/04/15 01:37:50;;;;;;;17.33;13.80;;;;;;;11.11;61.03;100062.88;5052688;28;20717;-63
2022/04/15 01:40:19;;;;;;;20.80;13.73;;;;;;;11.08;60.98;100058.75;5052913;28;20221;-64
2022/04/15 01:42:48;;;;;;;16.50;12.23;;;;;;;11.08;60.77;100064.06;5053450;28;20190;-63
2022/04/15 01:45:15;;;;;;;24.57;13.90;;;;;;;11.06;61.17;100046.66;5053021;28;20666;-63
2022/04/15 01:47:42;;;;;;;19.40;12.50;;;;;;;11.11;61.13;100049.56;5052594;28;20197;-63
2022/04/15 01:50:11;;;;;;;15.97;12.97;;;;;;;11.11;60.60;100046.91;5052547;28;20670;-63
2022/04/15 01:52:38;;;;;;;82.40;16.40;;;;;;;11.13;60.82;100047.56;5052440;28;20578;-64
2022/04/15 01:55:05;;;;;;;28.17;14.43;;;;;;;11.11;61.04;100049.56;5052483;28;20199;-63
2022/04/15 01:57:35;;;;;;;15.87;12.70;;;;;;;11.12;60.93;100043.28;5052682;28;20267;-63
2022/04/15 02:00:02;;;;;;;28.33;13.40;;;;;;;11.12;60.91;100043.28;5052553;28;20269;-63
2022/04/15 02:02:28;;;;;;;18.73;12.87;;;;;;;11.13;61.08;100044.06;5052606;28;20189;-63
2022/04/15 02:04:55;;;;;;;16.70;12.30;;;;;;;11.03;61.33;100044.38;5052159;28;20268;-63
2022/04/15 02:07:23;;;;;;;12.47;10.73;;;;;;;10.77;61.80;100046.69;5052858;28;20559;-63
2022/04/15 02:09:50;;;;;;;11.77;10.40;;;;;;;10.75;62.07;100040.75;5053069;28;20201;-63
2022/04/15 02:12:17;;;;;;;16.20;10.73;;;;;;;10.65;61.83;100035.69;5051144;28;20216;-63
2022/04/15 02:14:46;;;;;;;20.77;11.47;;;;;;;10.61;62.04;100009.66;5034663;28;20236;-63
2022/04/15 02:17:13;;;;;;;15.43;11.67;;;;;;;10.72;61.97;100025.16;5052435;28;20190;-63
2022/04/15 02:19:39;;;;;;;13.57;12.27;;;;;;;10.61;61.41;100033.56;5052579;28;20195;-63
2022/04/15 02:22:06;;;;;;;15.20;12.93;;;;;;;10.45;62.27;100023.13;5052249;28;20674;-63
2022/04/15 02:24:33;;;;;;;12.33;11.07;;;;;;;10.38;63.22;100024.88;5034621;28;20200;-62
2022/04/15 02:27:00;;;;;;;13.77;11.40;;;;;;;10.20;62.73;100008.44;5053011;28;20194;-63
2022/04/15 02:29:26;;;;;;;16.27;10.40;;;;;;;10.26;62.53;100026.31;5052526;28;20279;-63
2022/04/15 02:31:54;;;;;;;16.50;10.20;;;;;;;10.10;62.06;100034.44;5052232;28;20668;-63
2022/04/15 02:34:21;;;;;;;16.17;11.03;;;;;;;10.09;63.31;100036.25;5051805;28;20659;-63
2022/04/15 02:36:48;;;;;;;11.87;10.07;;;;;;;10.14;62.87;100035.72;5051475;28;20197;-63
2022/04/15 02:39:15;;;;;;;11.67;10.50;;;;;;;10.17;62.31;100040.69;5052178;28;20196;-63
2022/04/15 02:41:42;;;;;;;13.17;11.27;;;;;;;10.09;63.23;100033.59;5051628;28;20273;-63
2022/04/15 02:44:09;;;;;;;11.10;9.40;;;;;;;10.11;63.14;100030.78;5051739;28;20666;-63
2022/04/15 02:46:36;;;;;;;10.90;9.80;;;;;;;10.18;63.04;100026.41;5051986;28;20198;-63
2022/04/15 02:49:06;;;;;;;10.87;9.93;;;;;;;10.22;64.01;100022.38;5052193;28;20697;-63
2022/04/15 02:51:34;;;;;;;11.30;10.03;;;;;;;10.23;63.66;100024.84;5051428;28;20204;-64
2022/04/15 02:54:01;;;;;;;19.77;10.80;;;;;;;10.20;63.23;100025.22;5052121;28;20198;-64
2022/04/15 02:56:29;;;;;;;17.93;10.80;;;;;;;10.18;63.51;100021.91;5051662;28;20625;-63
2022/04/15 02:58:56;;;;;;;13.33;9.87;;;;;;;10.18;63.50;100023.75;5034320;28;20236;-63
2022/04/15 03:01:23;;;;;;;19.13;10.30;;;;;;;10.15;63.45;100030.25;5034353;28;20635;-64
2022/04/15 03:03:49;;;;;;;10.23;9.23;;;;;;;10.03;63.35;100006.94;5033905;28;20255;-64
2022/04/15 03:06:18;;;;;;;14.77;9.73;;;;;;;10.11;63.37;100028.13;5034223;28;20283;-63
2022/04/15 03:08:44;;;;;;;13.10;9.23;;;;;;;10.00;64.10;100017.91;5051744;28;20207;-64
2022/04/15 03:11:11;;;;;;;10.47;9.13;;;;;;;9.96;64.13;100022.75;5051311;28;20200;-63
2022/04/15 03:13:38;;;;;;;15.03;9.00;;;;;;;9.91;63.78;100018.97;5034060;28;20640;-63
2022/04/15 03:16:05;;;;;;;12.33;9.23;;;;;;;9.90;64.61;100022.63;5052638;28;20236;-63
2022/04/15 03:18:31;;;;;;;18.20;9.37;;;;;;;9.90;64.41;100027.94;5051408;28;20197;-62
2022/04/15 03:20:59;;;;;;;13.53;10.27;;;;;;;9.77;63.78;100007.31;5050982;28;20716;-62
2022/04/15 03:23:27;;;;;;;12.57;8.77;;;;;;;9.88;64.93;100029.94;5052278;28;20259;-63
2022/04/15 03:25:54;;;;;;;9.67;8.87;;;;;;;9.81;64.13;100026.38;5055509;28;20673;-62
2022/04/15 03:28:21;;;;;;;9.73;8.23;;;;;;;9.80;64.84;100028.19;5055835;28;20193;-63
2022/04/15 03:30:48;;;;;;;17.63;8.73;;;;;;;9.75;64.04;100035.84;5055096;28;20739;-63
2022/04/15 03:33:14;;;;;;;18.23;9.57;;;;;;;9.69;65.24;100035.75;5055109;28;20720;-63
2022/04/15 03:35:41;;;;;;;16.13;9.43;;;;;;;9.54;65.10;100048.94;5055519;28;20196;-62
2022/04/15 03:38:08;;;;;;;15.80;9.83;;;;;;;9.51;65.30;100043.13;5055819;28;20192;-63
2022/04/15 03:40:36;;;;;;;13.13;9.60;;;;;;;9.47;66.37;100041.84;5055186;28;20232;-63
2022/04/15 03:43:03;;;;;;;10.70;9.60;;;;;;;9.53;66.06;100046.47;5054863;28;20666;-62
2022/04/15 03:45:30;;;;;;;14.37;9.20;;;;;;;9.56;65.52;100056.72;5054916;28;20278;-62
2022/04/15 03:47:57;;;;;;;13.30;9.70;;;;;;;9.57;65.28;100061.84;5055203;28;20200;-62
2022/04/15 03:50:24;;;;;;;20.83;10.57;;;;;;;9.58;66.36;100050.25;5037533;28;20649;-62
2022/04/15 03:52:51;;;;;;;14.07;9.87;;;;;;;9.50;65.40;100054.75;5054739;28;20196;-62
2022/04/15 03:55:20;;;;;;;15.90;8.67;;;;;;;9.42;64.79;100050.34;5054892;28;20280;-63
2022/04/15 03:57:49;;;;;;;13.60;9.00;;;;;;;9.37;65.45;100054.50;5054620;28;20243;-63
2022/04/15 04:00:18;;;;;;;11.07;9.93;;;;;;;9.41;65.89;100053.16;5054305;28;20662;-62
2022/04/15 04:02:46;;;;;;;19.03;10.17;;;;;;;9.41;64.72;100053.16;5054688;28;20220;-62
2022/04/15 04:05:14;;;;;;;14.90;10.90;;;;;;;9.46;65.21;100053.47;5055233;28;20266;-62
2022/04/15 04:07:40;;;;;;;23.13;12.30;;;;;;;9.63;64.40;100052.34;5054827;28;20280;-62
2022/04/15 04:10:07;;;;;;;26.20;12.07;;;;;;;9.84;64.00;100053.34;5054752;28;20290;-63
2022/04/15 04:12:35;;;;;;;16.40;11.83;;;;;;;9.96;63.05;100059.91;5054422;28;20691;-63
2022/04/15 04:15:05;;;;;;;17.37;12.27;;;;;;;10.15;62.36;100062.09;5053734;28;20228;-63
2022/04/15 04:17:32;;;;;;;17.73;11.87;;;;;;;10.31;61.76;100061.97;5055671;28;20206;-63
2022/04/15 04:19:59;;;;;;;14.43;12.67;;;;;;;10.54;61.15;100061.91;5054569;28;20249;-63
2022/04/15 04:22:28;;;;;;;18.73;13.00;;;;;;;10.57;60.65;100064.16;5054735;28;20271;-63
2022/04/15 04:24:55;;;;;;;26.77;14.57;;;;;;;10.85;60.00;100066.03;5054456;28;20247;-63
2022/04/15 04:27:21;;;;;;;38.20;13.80;;;;;;;11.21;58.78;100058.09;5054674;28;20190;-63
2022/04/15 04:29:48;;;;;;;25.37;13.20;;;;;;;11.52;57.85;100060.50;5054332;28;20203;-63
2022/04/15 04:32:17;;;;;;;22.30;13.77;;;;;;;11.77;55.59;100061.81;5054865;28;20724;-63
2022/04/15 04:34:44;;;;;;;26.90;12.70;;;;;;;12.07;55.64;100072.16;5053004;28;20245;-62
2022/04/15 04:37:11;;;;;;;15.37;11.03;;;;;;;12.47;53.18;100076.78;5054149;28;20194;-62
2022/04/15 04:39:38;;;;;;;21.57;12.00;;;;;;;12.82;51.52;100073.13;5053950;28;20191;-62
2022/04/15 04:42:07;;;;;;;20.97;13.23;;;;;;;13.10;50.34;100081.09;5053762;28;20720;-63
2022/04/15 04:44:36;;;;;;;24.30;12.13;;;;;;;13.47;50.11;100084.13;5053813;28;20551;-64
2022/04/15 04:47:03;;;;;;;34.60;12.07;;;;;;;13.88;48.66;100086.72;5053423;28;20193;-64
2022/04/15 04:49:31;;;;;;;16.83;8.73;;;;;;;14.40;47.29;100092.97;5054131;28;20685;-64
2022/04/15 04:51:58;;;;;;;11.10;7.20;;;;;;;15.01;44.35;100096.16;5053629;28;20233;-64
2022/04/15 04:54:27;;;;;;;7.90;6.80;;;;;;;15.89;49.19;100091.69;5035971;28;20193;-68
2022/04/15 04:56:54;;;;;;;8.03;5.87;;;;;;;17.10;46.91;100083.03;5053715;28;20212;-68
2022/04/15 04:59:22;;;;;;;8.83;6.23;;;;;;;17.99;39.31;100075.91;5052550;28;20200;-68
2022/04/15 05:01:49;;;;;;;9.63;5.40;;;;;;;18.39;37.81;100094.97;5034426;28;20308;-69
2022/04/15 05:04:17;;;;;;;6.23;5.20;;;;;;;19.00;38.40;100084.56;5033274;28;20290;-69
2022/04/15 05:06:45;;;;;;;10.07;5.30;;;;;;;19.78;36.85;100094.59;5053723;28;20640;-68
2022/04/15 05:09:15;;;;;;;13.43;5.40;;;;;;;20.31;33.22;100083.44;5019413;28;20206;-68
2022/04/15 05:11:42;;;;;;;11.23;6.50;;;;;;;20.43;32.11;100103.06;5053208;28;20185;-69
2022/04/15 05:14:09;;;;;;;11.37;6.40;;;;;;;20.69;32.32;100091.59;5053932;28;20278;-70
2022/04/15 05:16:37;;;;;;;6.50;5.97;;;;;;;20.83;33.33;100092.91;5054068;28;20189;-70
2022/04/15 05:19:04;;;;;;;9.13;6.37;;;;;;;21.30;31.24;100091.44;5036343;28;20199;-69
2022/04/15 05:21:30;;;;;;;7.97;6.83;;;;;;;21.23;30.23;100098.09;5053107;28;20689;-70
2022/04/15 05:23:58;;;;;;;7.20;5.80;;;;;;;20.42;31.12;100088.75;5053479;28;20246;-70
2022/04/15 05:26:25;;;;;;;10.00;6.00;;;;;;;19.92;32.29;100095.09;5053349;28;20274;-72
2022/04/15 05:28:52;;;;;;;15.17;5.97;;;;;;;19.67;32.58;100097.31;5053194;28;20266;-71
2022/04/15 05:31:18;;;;;;;12.53;5.67;;;;;;;19.17;33.73;100077.41;5052882;28;20614;-72
2022/04/15 05:33:45;;;;;;;11.57;6.10;;;;;;;19.19;33.45;100084.19;5021495;28;20204;-72
2022/04/15 05:36:12;;;;;;;8.43;5.73;;;;;;;18.98;33.75;100097.44;5036534;28;20249;-71
2022/04/15 05:38:39;;;;;;;10.20;5.17;;;;;;;19.13;33.31;100095.09;5052868;28;20208;-71
2022/04/15 05:41:08;;;;;;;11.20;5.37;;;;;;;18.73;34.45;100097.69;5044219;28;20201;-70
2022/04/15 05:43:36;;;;;;;11.80;6.17;;;;;;;18.76;35.38;100099.09;5032851;28;20199;-66
2022/04/15 05:46:03;;;;;;;20.37;6.40;;;;;;;18.52;35.63;100092.06;5032473;28;20201;-66
2022/04/15 05:48:31;;;;;;;21.30;6.80;;;;;;;18.42;36.09;100081.88;5032484;28;20212;-67
2022/04/15 05:50:58;;;;;;;15.40;5.33;;;;;;;18.51;35.98;100079.66;5050139;28;20197;-65
2022/04/15 05:53:25;;;;;;;14.77;6.07;;;;;;;18.64;36.03;100079.44;5032067;28;20224;-67
2022/04/15 05:55:52;;;;;;;13.13;6.40;;;;;;;19.08;37.27;100082.31;5051798;28;20192;-67
2022/04/15 05:58:20;;;;;;;16.07;5.40;;;;;;;19.26;37.77;100078.69;5052269;28;20245;-69
2022/04/15 06:00:47;;;;;;;19.03;6.23;;;;;;;19.32;34.67;100080.47;5034836;28;20241;-65
2022/04/15 06:03:14;;;;;;;9.23;5.30;;;;;;;19.44;34.41;100086.63;5052140;28;20212;-67
2022/04/15 06:05:40;;;;;;;14.37;5.33;;;;;;;19.72;33.41;100081.25;5052677;28;20248;-68
2022/04/15 06:08:08;;;;;;;10.50;4.50;;;;;;;19.96;32.12;100088.16;5052252;28;20204;-70
2022/04/15 06:10:37;;;;;;;37.77;6.73;;;;;;;19.89;32.69;100084.81;5051633;28;20193;-67
2022/04/15 06:13:09;;;;;;;10.27;4.57;;;;;;;19.64;33.63;100076.25;5052240;28;20203;-68
2022/04/15 06:15:41;;;;;;;10.87;5.40;;;;;;;19.49;33.19;100081.34;5051957;28;20247;-68
2022/04/15 06:18:09;;;;;;;6.80;5.47;;;;;;;19.20;33.76;100079.63;5041708;28;20212;-69
2022/04/15 06:20:40;;;;;;;12.17;5.10;;;;;;;19.02;33.86;100071.69;5030552;28;20705;-69
2022/04/15 06:23:07;;;;;;;13.67;5.30;;;;;;;19.30;34.26;100075.31;5031088;28;20647;-69
2022/04/15 06:25:35;;;;;;;12.03;7.30;;;;;;;19.74;33.09;100084.53;5031785;28;20200;-70
2022/04/15 06:28:05;;;;;;;12.20;5.00;;;;;;;19.67;33.32;100081.16;5047817;28;20697;-66
2022/04/15 06:30:32;;;;;;;8.47;4.70;;;;;;;20.12;32.79;100082.84;5035584;28;20249;-66
2022/04/15 06:33:02;;;;;;;12.40;5.13;;;;;;;20.06;32.35;100086.47;5034172;28;20280;-67
2022/04/15 06:35:30;;;;;;;13.07;5.43;;;;;;;20.53;32.00;100090.56;5034323;28;20201;-66
2022/04/15 06:37:57;;;;;;;11.00;4.63;;;;;;;20.82;35.03;100074.25;5047352;28;20208;-67
2022/04/15 06:40:24;;;;;;;6.93;4.10;;;;;;;21.83;32.05;100077.19;5022190;28;20284;-67
2022/04/15 06:42:51;;;;;;;9.37;5.03;;;;;;;22.49;28.40;100077.59;5055216;28;20263;-68
2022/04/15 06:45:17;;;;;;;11.70;4.03;;;;;;;22.51;27.59;100080.88;5047465;28;20254;-68
2022/04/15 06:47:44;;;;;;;17.33;4.47;;;;;;;22.92;29.71;100074.66;5052105;28;20200;-68
2022/04/15 06:50:17;;;;;;;8.53;3.80;;;;;;;23.55;25.66;100082.56;5051690;28;20560;-69
2022/04/15 06:52:45;;;;;;;4.77;3.17;;;;;;;23.81;25.75;100078.84;5034325;28;20224;-69
2022/04/15 06:55:12;;;;;;;5.40;3.40;;;;;;;23.90;24.65;100074.53;5032965;28;20642;-69
2022/04/15 06:57:40;;;;;;;7.63;3.27;;;;;;;23.64;25.58;100070.13;5037272;28;20279;-72
2022/04/15 07:00:11;;;;;;;20.37;4.03;;;;;;;23.43;24.99;100081.16;5055358;28;20210;-68
2022/04/15 07:02:38;;;;;;;8.93;3.60;;;;;;;22.68;26.28;100065.28;5054426;28;20201;-67
2022/04/15 07:05:06;;;;;;;18.10;4.07;;;;;;;22.23;26.58;100066.78;5055160;28;20243;-70
2022/04/15 07:07:34;;;;;;;4.87;2.97;;;;;;;21.65;27.66;100069.41;5054617;28;20291;-68
2022/04/15 07:10:01;;;;;;;15.50;4.13;;;;;;;21.14;28.86;100051.75;5054449;28;20317;-71
2022/04/15 07:12:28;;;;;;;8.73;4.03;;;;;;;21.24;29.04;100062.72;5055566;28;20635;-73
2022/04/15 07:14:56;;;;;;;10.63;3.80;;;;;;;21.01;30.32;100059.41;5055262;28;20649;-69
2022/04/15 07:17:22;;;;;;;8.30;3.80;;;;;;;21.19;30.22;100062.63;5055313;28;20197;-70
2022/04/15 07:19:49;;;;;;;14.67;4.30;;;;;;;21.48;29.50;100063.28;5055413;28;20192;-70
2022/04/15 07:22:18;;;;;;;15.10;4.67;;;;;;;21.70;29.73;100061.34;5055547;28;20220;-70
2022/04/15 07:24:46;;;;;;;11.57;4.93;;;;;;;21.51;30.27;100050.06;5054724;28;20193;-68
2022/04/15 07:27:13;;;;;;;5.50;4.93;;;;;;;21.47;30.36;100043.53;5055206;28;20658;-69
2022/04/15 07:29:40;;;;;;;8.90;4.73;;;;;;;21.40;30.05;100051.00;5055546;28;20572;-67
2022/04/15 07:32:08;;;;;;;9.37;4.97;;;;;;;21.59;29.98;100052.31;5055505;28;20200;-68
2022/04/15 07:34:36;;;;;;;15.37;4.77;;;;;;;21.92;30.24;100048.66;5053744;28;20636;-69
2022/04/15 07:37:04;;;;;;;7.90;4.10;;;;;;;22.06;29.88;100045.25;5053914;28;20199;-70
2022/04/15 07:39:32;;;;;;;6.30;4.23;;;;;;;21.75;29.70;100043.31;5054093;28;20246;-68
2022/04/15 07:42:00;;;;;;;4.47;4.13;;;;;;;21.96;30.03;100044.34;5053648;28;20299;-68
2022/04/15 07:44:27;;;;;;;7.33;3.63;;;;;;;22.42;29.01;100051.78;5035724;28;20286;-67
2022/04/15 07:46:54;;;;;;;5.40;3.50;;;;;;;22.55;28.92;100045.94;5053525;28;20555;-67
2022/04/15 07:49:21;;;;;;;10.23;4.00;;;;;;;22.65;28.26;100048.72;5053719;28;20196;-67
2022/04/15 07:51:48;;;;;;;6.83;3.93;;;;;;;22.74;28.13;100044.47;5054806;28;20661;-67
2022/04/15 07:54:16;;;;;;;5.07;3.47;;;;;;;22.86;28.88;100045.88;5054673;28;20291;-67
2022/04/15 07:56:43;;;;;;;5.30;3.70;;;;;;;23.20;27.89;100036.31;5054619;28;20262;-69
2022/04/15 07:59:11;;;;;;;4.20;3.33;;;;;;;23.55;27.39;100036.47;5054856;28;20208;-67
2022/04/15 08:01:38;;;;;;;4.50;3.13;;;;;;;23.93;28.60;100035.22;5046955;28;20751;-68
2022/04/15 08:04:06;;;;;;;6.93;3.27;;;;;;;24.37;27.42;100020.84;5054186;28;20229;-67
2022/04/15 08:06:32;;;;;;;12.37;3.70;;;;;;;24.58;27.46;100025.16;5054705;28;20577;-67
2022/04/15 08:09:00;;;;;;;4.53;3.40;;;;;;;24.76;26.00;100024.63;5054176;28;20234;-68
2022/04/15 08:11:28;;;;;;;6.20;2.87;;;;;;;25.21;25.41;100028.25;5053558;28;20202;-66
2022/04/15 08:13:56;;;;;;;3.67;3.37;;;;;;;25.51;24.83;100025.47;5054169;28;20249;-67
2022/04/15 08:16:25;;;;;;;3.40;3.10;;;;;;;25.61;25.88;100017.22;5054136;28;20184;-68
2022/04/15 08:18:51;;;;;;;5.80;3.17;;;;;;;26.04;24.82;100014.50;5054541;28;20371;-67
2022/04/15 08:21:18;;;;;;;10.53;3.77;;;;;;;26.16;24.27;100011.41;5054139;28;20744;-67
2022/04/15 08:23:47;;;;;;;6.73;3.50;;;;;;;26.39;23.83;100013.41;5054272;28;20212;-69
2022/04/15 08:26:14;;;;;;;9.80;3.80;;;;;;;26.46;23.43;100005.72;5054685;28;20270;-68
2022/04/15 08:28:40;;;;;;;5.93;3.33;;;;;;;26.66;24.20;100011.78;5054437;28;20251;-69
2022/04/15 08:31:08;;;;;;;9.17;3.60;;;;;;;26.94;23.95;100001.94;5053971;28;20193;-66
2022/04/15 08:33:37;;;;;;;4.07;3.33;;;;;;;26.89;23.52;100007.44;5054225;28;20193;-66
2022/04/15 08:36:04;;;;;;;6.70;3.07;;;;;;;27.19;23.46;100009.84;5054205;28;20196;-67
2022/04/15 08:38:31;;;;;;;15.17;4.83;;;;;;;26.68;22.93;100008.78;5053958;28;20250;-68
2022/04/15 08:40:59;;;;;;;2.93;2.70;;;;;;;26.13;23.46;100001.09;5048694;28;20200;-68
2022/04/15 08:43:29;;;;;;;9.27;4.03;;;;;;;26.03;23.58;99991.09;5053912;28;20224;-69
2022/04/15 08:45:56;;;;;;;5.23;3.20;;;;;;;25.74;24.34;99982.03;5054173;28;20212;-67
2022/04/15 08:48:25;;;;;;;3.47;2.93;;;;;;;25.52;24.37;99981.63;5053757;28;20689;-67
2022/04/15 08:50:54;;;;;;;6.73;3.13;;;;;;;25.72;25.04;99972.53;5053959;28;20287;-66
2022/04/15 08:53:22;;;;;;;7.20;3.63;;;;;;;26.10;23.85;99968.97;5053942;28;20207;-66
2022/04/15 08:55:49;;;;;;;2.73;2.53;;;;;;;26.33;23.26;99973.69;5053236;28;20201;-68
2022/04/15 08:58:15;;;;;;;4.40;2.73;;;;;;;26.51;22.44;99970.22;5054297;28;20224;-68
2022/04/15 09:00:42;;;;;;;3.17;2.87;;;;;;;26.44;21.77;99967.00;5053501;28;20196;-67
2022/04/15 09:03:09;;;;;;;5.47;3.10;;;;;;;26.30;22.10;99960.63;5053230;28;20220;-67
2022/04/15 09:05:36;;;;;;;16.23;4.00;;;;;;;26.09;22.57;99961.91;5053499;28;20662;-66
2022/04/15 09:08:06;;;;;;;5.07;3.97;;;;;;;26.19;23.74;99942.75;5045748;28;20260;-67
2022/04/15 09:10:34;;;;;;;6.50;3.30;;;;;;;26.38;22.62;99949.09;5034159;28;20267;-67
2022/04/15 09:13:03;;;;;;;3.47;3.17;;;;;;;26.47;22.36;99950.09;5033655;28;20296;-66
2022/04/15 09:15:31;;;;;;;3.40;3.10;;;;;;;26.71;23.38;99945.50;5033666;28;20229;-66
2022/04/15 09:18:00;;;;;;;8.97;3.50;;;;;;;27.05;21.93;99949.72;5033443;28;20292;-67
2022/04/15 09:20:31;;;;;;;9.32;4.95;;;;;;;27.37;23.20;99936.22;5032307;28;20445;-65
2022/04/15 09:23:10;;;;;;;9.73;5.57;;;;;;;27.59;25.87;99932.88;5015428;28;20221;-65
2022/04/15 09:25:38;;;;;;;4.70;4.33;;;;;;;28.04;22.69;99940.34;5032955;28;20185;-65
2022/04/15 09:28:06;;;;;;;4.20;3.90;;;;;;;28.25;20.74;99928.78;5042957;28;20200;-66
2022/04/15 09:30:36;;;;;;;5.40;4.00;;;;;;;28.35;21.72;99928.59;5053103;28;20300;-64
2022/04/15 09:33:03;;;;;;;13.23;4.47;;;;;;;28.30;21.22;99922.41;5052025;28;20318;-66
2022/04/15 09:35:31;;;;;;;8.20;3.53;;;;;;;28.21;20.86;99921.47;5053168;28;20204;-65
2022/04/15 09:38:03;;;;;;;17.10;3.70;;;;;;;28.32;22.02;99920.19;5052757;28;20284;-65
2022/04/15 09:40:37;;;;;;;8.63;3.50;;;;;;;28.50;20.84;99916.59;5052791;28;20208;-66
2022/04/15 09:43:06;;;;;;;4.83;3.40;;;;;;;28.67;20.56;99903.94;5052891;28;20225;-66
2022/04/15 09:45:37;;;;;;;6.07;4.37;;;;;;;28.61;20.91;99899.69;5052675;28;20206;-65
2022/04/15 09:48:05;;;;;;;4.57;4.20;;;;;;;28.71;20.74;99895.94;5052347;28;20574;-65
2022/04/15 09:50:35;;;;;;;6.90;3.63;;;;;;;28.83;20.00;99888.81;5052498;28;20258;-65
2022/04/15 09:53:10;;;;;;;8.33;3.33;;;;;;;29.09;19.72;99883.66;5052602;28;20617;-64
2022/04/15 09:55:40;;;;;;;6.97;3.70;;;;;;;28.92;20.16;99880.72;5051799;28;20739;-64
2022/04/15 09:58:11;;;;;;;3.60;3.37;;;;;;;28.77;19.84;99891.97;5052712;28;20191;-64
2022/04/15 10:00:39;;;;;;;4.80;3.83;;;;;;;28.78;20.10;99885.38;5034051;28;20304;-66
2022/04/15 10:03:11;;;;;;;4.47;3.20;;;;;;;28.89;19.71;99879.41;5051677;28;20701;-67
2022/04/15 10:05:39;;;;;;;5.70;3.60;;;;;;;28.82;19.75;99880.91;5051947;28;20258;-66
2022/04/15 10:08:10;;;;;;;8.50;3.83;;;;;;;28.71;19.41;99876.78;5052278;28;20193;-67
2022/04/15 10:10:40;;;;;;;6.80;3.17;;;;;;;28.54;19.80;99863.72;5052896;28;20196;-67
2022/04/15 10:13:07;;;;;;;4.37;3.37;;;;;;;28.32;19.72;99862.78;5047036;28;20588;-66
2022/04/15 10:15:37;;;;;;;5.93;3.47;;;;;;;28.16;20.49;99845.06;5043626;28;20702;-67
2022/04/15 10:18:04;;;;;;;5.23;3.43;;;;;;;28.26;20.52;99855.81;5031977;28;20773;-67
2022/04/15 10:20:33;;;;;;;5.67;4.17;;;;;;;28.01;20.31;99853.56;5031597;28;20209;-67
2022/04/15 10:23:03;;;;;;;6.17;3.67;;;;;;;27.77;20.72;99825.56;5031955;28;20228;-67
2022/04/15 10:25:31;;;;;;;6.33;3.10;;;;;;;27.69;21.01;99834.44;5033224;28;20185;-67
2022/04/15 10:28:07;;;;;;;7.33;3.37;;;;;;;27.86;21.13;99840.16;5032166;28;20721;-68
2022/04/15 10:30:35;;;;;;;6.63;3.17;;;;;;;27.73;20.91;99830.00;5032148;28;20669;-67
2022/04/15 10:33:02;;;;;;;5.93;3.10;;;;;;;27.52;21.39;99829.53;5031196;28;20220;-68
2022/04/15 10:35:34;;;;;;;8.03;3.80;;;;;;;27.68;20.88;99819.19;5032323;28;20209;-68
2022/04/15 10:38:04;;;;;;;4.17;3.17;;;;;;;27.45;20.86;99820.09;5014140;28;20193;-68
2022/04/15 10:40:36;;;;;;;5.13;2.90;;;;;;;27.50;20.77;99811.81;5000459;28;20178;-67
2022/04/15 10:43:22;;;;;;;9.23;3.10;;;;;;;27.60;20.97;99809.72;5032104;28;20211;-68
2022/04/15 10:45:51;;;;;;;3.00;2.80;;;;;;;27.39;20.59;99815.81;5031740;28;20258;-67
2022/04/15 10:48:29;;;;;;;5.47;3.00;;;;;;;26.98;22.07;99818.34;5031520;28;20197;-66
2022/04/15 10:50:56;;;;;;;7.87;3.03;;;;;;;26.79;22.14;99803.09;5031932;28;20200;-67
2022/04/15 10:53:34;;;;;;;3.93;3.30;;;;;;;26.80;21.58;99801.97;5032113;28;20193;-68
2022/04/15 10:56:11;;;;;;;8.93;3.43;;;;;;;27.02;22.16;99802.19;5049044;28;20673;-69
2022/04/15 11:01:52;;;;;;;3.63;2.70;;;;;;;27.03;21.00;99776.56;5051447;28;20668;-70
2022/04/15 11:04:26;;;;;;;2.80;2.27;;;;;;;27.13;21.78;99754.56;5033459;28;20410;-69
2022/04/15 11:06:55;;;;;;;5.40;2.70;;;;;;;27.37;22.11;99766.22;5034242;28;20227;-69
2022/04/15 11:09:24;;;;;;;24.10;3.47;;;;;;;27.44;21.79;99763.91;5033911;28;20193;-72
2022/04/15 11:11:52;;;;;;;7.67;3.60;;;;;;;27.47;21.68;99761.38;5033737;28;20242;-69
2022/04/15 11:14:35;;;;;;;6.80;4.00;;;;;;;27.01;22.79;99755.03;5051609;28;20268;-69
2022/04/15 11:17:03;;;;;;;9.17;4.17;;;;;;;27.00;22.26;99750.69;5051339;28;20184;-70
2022/04/15 11:19:31;;;;;;;7.70;4.40;;;;;;;27.05;22.87;99742.44;5017181;28;20204;-70
2022/04/15 11:21:57;;;;;;;6.03;4.50;;;;;;;27.18;22.75;99749.03;5051613;28;20225;-69
2022/04/15 11:24:26;;;;;;;9.10;3.87;;;;;;;27.09;22.34;99742.63;5051532;28;20229;-70
2022/04/15 11:27:00;;;;;;;6.43;3.70;;;;;;;27.05;23.01;99753.34;5052283;28;20288;-71
2022/04/15 11:29:35;;;;;;;5.53;4.47;;;;;;;27.11;22.22;99741.22;5050822;28;20189;-70